createdAt,value
2023-03-01T00:02:13.138Z,14.02
2023-03-01T00:07:07.010Z,14.00
2023-03-01T00:12:00.744Z,16.25
2023-03-01T00:14:27.959Z,13.68
2023-03-01T00:19:23.006Z,12.27
2023-03-01T00:21:50.379Z,24.38
2023-03-01T00:24:17.696Z,15.48
2023-03-01T00:26:44.845Z,14.45
2023-03-01T00:31:38.466Z,14.80
2023-03-01T00:34:06.889Z,12.30
2023-03-01T00:36:35.522Z,15.35
2023-03-01T00:39:02.995Z,13.40
2023-03-01T00:41:30.122Z,15.80
2023-03-01T00:46:25.632Z,21.02
2023-03-01T00:48:52.853Z,13.70
2023-03-01T00:53:48.608Z,16.70
2023-03-01T00:56:16.230Z,14.75
2023-03-01T00:58:44.663Z,14.85
2023-03-01T01:03:49.846Z,17.00
2023-03-01T01:06:17.968Z,17.02
2023-03-01T01:08:45.094Z,16.05
2023-03-01T01:11:13.163Z,14.73
2023-03-01T01:13:40.938Z,16.77
2023-03-01T01:16:08.424Z,15.40
2023-03-01T01:18:35.523Z,15.85
2023-03-01T01:21:07.361Z,18.05
2023-03-01T01:23:34.856Z,17.25
2023-03-01T01:26:06.303Z,18.17
2023-03-01T01:28:33.565Z,17.95
2023-03-01T01:31:01.150Z,14.52
2023-03-01T01:33:28.341Z,16.17
2023-03-01T01:35:55.654Z,16.38
2023-03-01T01:40:50.410Z,14.05
2023-03-01T01:43:23.449Z,13.50
2023-03-01T01:45:51.293Z,15.23
2023-03-01T01:48:20.827Z,16.20
2023-03-01T01:50:52.605Z,16.75
2023-03-01T01:53:21.733Z,15.57
2023-03-01T01:55:50.780Z,16.77
2023-03-01T01:58:19.476Z,17.58
2023-03-01T02:00:46.717Z,16.77
2023-03-01T02:03:20.929Z,18.35
2023-03-01T02:05:55.282Z,16.10
2023-03-01T02:08:24.607Z,17.55
2023-03-01T02:10:51.961Z,17.60
2023-03-01T02:13:19.317Z,15.25
2023-03-01T02:15:46.574Z,21.05
2023-03-01T02:18:15.922Z,18.90
2023-03-01T02:20:50.669Z,17.23
2023-03-01T02:23:17.990Z,18.95
2023-03-01T02:25:57.030Z,16.35
2023-03-01T02:28:35.000Z,17.17
2023-03-01T02:31:21.258Z,18.85
2023-03-01T02:33:52.118Z,16.00
2023-03-01T02:36:21.028Z,15.93
2023-03-01T02:38:49.136Z,16.60
2023-03-01T02:41:17.442Z,16.98
2023-03-01T02:43:44.719Z,20.83
2023-03-01T02:48:50.672Z,17.13
2023-03-01T02:51:32.520Z,17.42
2023-03-01T02:54:22.081Z,15.10
2023-03-01T02:56:49.839Z,16.20
2023-03-01T02:59:21.237Z,17.63
2023-03-01T03:01:48.788Z,19.00
2023-03-01T03:04:20.451Z,16.83
2023-03-01T03:06:49.978Z,16.73
2023-03-01T03:09:18.217Z,18.00
2023-03-01T03:11:46.676Z,17.83
2023-03-01T03:14:14.667Z,18.10
2023-03-01T03:16:46.101Z,19.77
2023-03-01T03:19:13.654Z,17.33
2023-03-01T03:21:40.753Z,21.55
2023-03-01T03:24:07.888Z,19.65
2023-03-01T03:26:35.016Z,20.02
2023-03-01T03:29:02.246Z,19.85
2023-03-01T03:33:56.583Z,21.20
2023-03-01T03:36:24.771Z,18.95
2023-03-01T03:38:51.954Z,16.38
2023-03-01T03:43:46.008Z,14.48
2023-03-01T03:46:13.384Z,18.10
2023-03-01T03:48:43.359Z,17.20
2023-03-01T03:51:17.994Z,19.60
2023-03-01T03:53:45.556Z,21.88
2023-03-01T03:56:12.764Z,19.00
2023-03-01T04:01:06.821Z,18.70
2023-03-01T04:03:35.932Z,16.98
2023-03-01T04:06:03.378Z,17.50
2023-03-01T04:08:30.825Z,20.67
2023-03-01T04:10:59.836Z,16.50
2023-03-01T04:13:27.177Z,16.27
2023-03-01T04:15:55.001Z,21.83
2023-03-01T04:18:26.117Z,19.27
2023-03-01T04:20:56.123Z,18.60
2023-03-01T04:23:23.380Z,20.02
2023-03-01T04:28:34.770Z,15.18
2023-03-01T04:33:28.984Z,18.73
2023-03-01T04:35:56.114Z,21.55
2023-03-01T04:38:23.371Z,22.27
2023-03-01T04:40:50.502Z,18.52
2023-03-01T04:43:18.541Z,18.65
2023-03-01T04:45:46.725Z,17.17
2023-03-01T04:48:13.831Z,20.05
2023-03-01T04:50:40.892Z,18.75
2023-03-01T04:53:07.954Z,18.60
2023-03-01T04:55:35.322Z,20.38
2023-03-01T04:58:02.463Z,20.33
2023-03-01T05:00:29.602Z,18.67
2023-03-01T05:02:57.823Z,18.48
2023-03-01T05:05:26.922Z,19.23
2023-03-01T05:07:58.062Z,22.13
2023-03-01T05:10:25.757Z,16.17
2023-03-01T05:12:55.883Z,17.52
2023-03-01T05:15:26.342Z,16.85
2023-03-01T05:17:55.020Z,18.63
2023-03-01T05:20:23.826Z,15.70
2023-03-01T05:22:51.319Z,19.00
2023-03-01T05:25:18.431Z,17.75
2023-03-01T05:27:45.542Z,18.05
2023-03-01T05:30:15.777Z,18.48
2023-03-01T05:32:47.063Z,18.23
2023-03-01T05:35:15.200Z,16.75
2023-03-01T05:37:43.411Z,20.65
2023-03-01T05:40:16.427Z,17.33
2023-03-01T05:42:47.502Z,18.92
2023-03-01T05:45:15.128Z,17.52
2023-03-01T05:47:45.800Z,18.45
2023-03-01T05:50:19.909Z,18.83
2023-03-01T05:52:51.236Z,21.65
2023-03-01T05:55:19.358Z,19.85
2023-03-01T05:57:46.427Z,20.27
2023-03-01T06:00:15.280Z,18.15
2023-03-01T06:02:42.547Z,18.83
2023-03-01T06:07:37.428Z,16.27
2023-03-01T06:12:35.446Z,16.50
2023-03-01T06:15:03.068Z,19.98
2023-03-01T06:17:38.272Z,20.83
2023-03-01T06:20:06.911Z,18.38
2023-03-01T06:22:34.090Z,18.55
2023-03-01T06:25:01.219Z,19.92
2023-03-01T06:27:28.344Z,20.13
2023-03-01T06:29:55.508Z,24.52
2023-03-01T06:32:22.604Z,17.80
2023-03-01T06:37:16.448Z,19.45
2023-03-01T06:39:43.572Z,23.42
2023-03-01T06:42:11.095Z,16.45
2023-03-01T06:44:38.604Z,21.70
2023-03-01T06:47:05.718Z,20.65
2023-03-01T06:49:32.797Z,19.98
2023-03-01T06:51:59.905Z,20.92
2023-03-01T06:54:27.055Z,20.92
2023-03-01T06:56:54.243Z,19.58
2023-03-01T07:01:48.488Z,17.88
2023-03-01T07:04:15.589Z,24.90
2023-03-01T07:06:42.697Z,21.45
2023-03-01T07:09:09.778Z,22.80
2023-03-01T07:11:36.912Z,24.52
2023-03-01T07:14:04.246Z,22.75
2023-03-01T07:16:31.841Z,21.63
2023-03-01T07:18:59.913Z,24.15
2023-03-01T07:21:27.821Z,21.30
2023-03-01T07:23:54.991Z,23.75
2023-03-01T07:28:48.788Z,20.58
2023-03-01T07:31:16.186Z,29.60
2023-03-01T07:33:43.280Z,28.88
2023-03-01T07:36:10.776Z,20.60
2023-03-01T07:38:37.960Z,25.25
2023-03-01T07:43:32.514Z,22.13
2023-03-01T07:46:01.282Z,22.65
2023-03-01T07:48:28.739Z,23.95
2023-03-01T07:50:55.896Z,23.15
2023-03-01T07:53:22.976Z,21.92
2023-03-01T07:55:50.027Z,27.45
2023-03-01T07:58:17.324Z,27.35
2023-03-01T08:00:44.509Z,22.23
2023-03-01T08:05:38.246Z,24.02
2023-03-01T08:08:06.072Z,19.92
2023-03-01T08:10:33.196Z,23.38
2023-03-01T08:13:00.311Z,22.52
2023-03-01T08:15:27.390Z,20.05
2023-03-01T08:17:54.449Z,21.65
2023-03-01T08:20:21.784Z,26.50
2023-03-01T08:22:48.925Z,26.27
2023-03-01T08:27:42.748Z,21.60
2023-03-01T08:30:10.273Z,24.25
2023-03-01T08:32:38.510Z,19.55
2023-03-01T08:35:05.925Z,22.00
2023-03-01T08:37:34.105Z,20.98
2023-03-01T08:40:02.055Z,21.23
2023-03-01T08:42:29.184Z,18.63
2023-03-01T08:47:22.933Z,16.75
2023-03-01T08:49:51.158Z,16.95
2023-03-01T08:52:18.422Z,17.10
2023-03-01T08:54:45.504Z,13.95
2023-03-01T08:57:13.720Z,14.57
2023-03-01T08:59:41.547Z,15.70
2023-03-01T09:02:13.481Z,20.65
2023-03-01T09:04:40.955Z,12.95
2023-03-01T09:07:08.545Z,15.48
2023-03-01T09:09:36.268Z,16.58
2023-03-01T09:12:03.373Z,12.98
2023-03-01T09:14:30.587Z,12.77
2023-03-01T09:16:57.895Z,12.57
2023-03-01T09:19:27.242Z,13.55
2023-03-01T09:21:54.555Z,12.23
2023-03-01T09:26:50.784Z,9.90
2023-03-01T09:29:18.923Z,11.20
2023-03-01T09:31:46.063Z,11.63
2023-03-01T09:36:40.054Z,10.85
2023-03-01T09:39:08.002Z,12.88
2023-03-01T09:41:53.756Z,11.88
2023-03-01T09:44:41.983Z,11.15
2023-03-01T09:47:14.060Z,8.85
2023-03-01T09:49:42.818Z,12.15
2023-03-01T09:52:20.562Z,11.40
2023-03-01T09:54:48.381Z,13.40
2023-03-01T09:57:18.451Z,8.82
2023-03-01T09:59:51.570Z,9.77
2023-03-01T10:02:26.137Z,8.65
2023-03-01T10:04:55.789Z,8.85
2023-03-01T10:07:38.766Z,7.82
2023-03-01T10:10:09.332Z,8.95
2023-03-01T10:12:39.357Z,8.35
2023-03-01T10:15:13.551Z,7.15
2023-03-01T10:17:43.914Z,7.25
2023-03-01T10:20:19.366Z,7.30
2023-03-01T10:22:51.476Z,8.55
2023-03-01T10:25:41.818Z,7.57
2023-03-01T10:28:19.286Z,8.70
2023-03-01T10:30:47.411Z,7.30
2023-03-01T10:33:25.073Z,8.43
2023-03-01T10:35:52.489Z,7.03
2023-03-01T10:38:21.397Z,7.00
2023-03-01T10:40:53.247Z,8.63
2023-03-01T10:43:20.864Z,8.70
2023-03-01T10:45:48.297Z,7.38
2023-03-01T10:48:25.354Z,10.82
2023-03-01T10:51:06.198Z,9.27
2023-03-01T10:53:36.119Z,10.20
2023-03-01T10:56:05.747Z,12.02
2023-03-01T10:58:33.336Z,6.70
2023-03-01T11:01:04.833Z,7.45
2023-03-01T11:03:39.406Z,8.70
2023-03-01T11:06:09.649Z,6.40
2023-03-01T11:08:38.439Z,9.00
2023-03-01T11:11:11.312Z,9.05
2023-03-01T11:13:39.625Z,6.95
2023-03-01T11:16:13.504Z,5.10
2023-03-01T11:18:48.187Z,5.68
2023-03-01T11:21:16.947Z,9.07
2023-03-01T11:23:44.900Z,6.82
2023-03-01T11:26:14.057Z,6.00
2023-03-01T11:28:42.155Z,5.70
2023-03-01T11:31:13.104Z,7.85
2023-03-01T11:33:52.134Z,7.75
2023-03-01T11:36:43.495Z,7.13
2023-03-01T11:39:22.737Z,9.27
2023-03-01T11:41:58.168Z,9.40
2023-03-01T11:44:29.301Z,10.18
2023-03-01T11:47:05.876Z,6.50
2023-03-01T11:49:36.207Z,7.57
2023-03-01T11:52:18.665Z,6.53
2023-03-01T11:54:51.717Z,8.73
2023-03-01T11:57:42.926Z,6.45
2023-03-01T12:00:23.220Z,6.72
2023-03-01T12:05:28.380Z,8.25
2023-03-01T12:08:24.416Z,5.47
2023-03-01T12:10:56.161Z,8.18
2023-03-01T12:13:43.846Z,8.52
2023-03-01T12:16:32.342Z,10.23
2023-03-01T12:19:08.401Z,8.32
2023-03-01T12:21:35.532Z,8.70
2023-03-01T12:24:23.747Z,8.18
2023-03-01T12:27:09.325Z,8.05
2023-03-01T12:29:40.378Z,9.13
2023-03-01T12:32:34.070Z,7.45
2023-03-01T12:35:08.783Z,7.45
2023-03-01T12:37:44.969Z,7.45
2023-03-01T12:40:13.674Z,10.55
2023-03-01T12:42:40.969Z,10.25
2023-03-01T12:45:23.153Z,8.10
2023-03-01T12:47:50.353Z,9.57
2023-03-01T12:50:22.483Z,6.25
2023-03-01T12:52:52.331Z,8.70
2023-03-01T12:55:36.100Z,9.30
2023-03-01T12:58:03.216Z,7.38
2023-03-01T13:00:34.464Z,10.20
2023-03-01T13:03:14.358Z,7.90
2023-03-01T13:05:54.349Z,12.30
2023-03-01T13:08:24.300Z,7.90
2023-03-01T13:10:53.773Z,8.13
2023-03-01T13:13:28.206Z,6.43
2023-03-01T13:15:56.285Z,7.68
2023-03-01T13:18:24.244Z,7.40
2023-03-01T13:20:52.431Z,10.82
2023-03-01T13:23:22.657Z,9.13
2023-03-01T13:25:58.957Z,5.28
2023-03-01T13:28:50.402Z,8.77
2023-03-01T13:31:17.541Z,7.60
2023-03-01T13:33:51.132Z,8.02
2023-03-01T13:36:31.189Z,8.68
2023-03-01T13:38:59.570Z,9.18
2023-03-01T13:41:44.935Z,6.70
2023-03-01T13:44:15.275Z,11.23
2023-03-01T13:46:44.603Z,9.18
2023-03-01T13:49:14.823Z,7.57
2023-03-01T13:51:42.030Z,8.20
2023-03-01T13:54:13.146Z,8.23
2023-03-01T13:56:40.230Z,9.02
2023-03-01T13:59:08.601Z,8.88
2023-03-01T14:01:37.005Z,11.35
2023-03-01T14:04:04.913Z,7.72
2023-03-01T14:06:33.639Z,7.60
2023-03-01T14:09:03.822Z,8.85
2023-03-01T14:11:40.143Z,8.90
2023-03-01T14:14:10.105Z,7.43
2023-03-01T14:16:37.178Z,7.22
2023-03-01T14:19:34.507Z,8.32
2023-03-01T14:22:23.368Z,8.23
2023-03-01T14:24:58.208Z,7.55
2023-03-01T14:27:27.831Z,7.78
2023-03-01T14:29:59.179Z,8.70
2023-03-01T14:32:27.826Z,8.68
2023-03-01T14:34:55.278Z,9.85
2023-03-01T14:37:22.435Z,8.35
2023-03-01T14:39:50.186Z,8.45
2023-03-01T14:42:17.628Z,7.72
2023-03-01T14:44:46.488Z,8.18
2023-03-01T14:47:16.143Z,8.48
2023-03-01T14:49:43.699Z,10.63
2023-03-01T14:52:22.285Z,7.68
2023-03-01T14:54:51.748Z,8.65
2023-03-01T14:57:22.558Z,12.63
2023-03-01T14:59:51.771Z,7.57
2023-03-01T15:02:20.286Z,8.88
2023-03-01T15:04:48.995Z,7.45
2023-03-01T15:07:16.159Z,8.63
2023-03-01T15:09:43.780Z,7.97
2023-03-01T15:12:29.486Z,8.98
2023-03-01T15:15:03.808Z,9.20
2023-03-01T15:17:36.472Z,8.32
2023-03-01T15:20:05.276Z,10.45
2023-03-01T15:22:32.510Z,10.88
2023-03-01T15:24:59.735Z,7.75
2023-03-01T15:27:27.485Z,8.13
2023-03-01T15:29:58.548Z,8.63
2023-03-01T15:32:27.949Z,8.23
2023-03-01T15:34:55.642Z,8.40
2023-03-01T15:37:40.284Z,9.90
2023-03-01T15:40:42.292Z,9.43
2023-03-01T15:43:29.329Z,10.35
2023-03-01T15:45:59.445Z,8.70
2023-03-01T15:48:27.313Z,8.02
2023-03-01T15:50:59.011Z,11.95
2023-03-01T15:53:26.325Z,7.30
2023-03-01T15:55:53.445Z,10.63
2023-03-01T15:58:22.324Z,8.38
2023-03-01T16:01:00.788Z,7.90
2023-03-01T16:03:29.045Z,9.43
2023-03-01T16:05:56.230Z,9.50
2023-03-01T16:08:23.436Z,9.73
2023-03-01T16:10:52.256Z,10.80
2023-03-01T16:13:20.142Z,10.38
2023-03-01T16:15:47.265Z,10.90
2023-03-01T16:18:14.533Z,9.90
2023-03-01T16:20:41.929Z,10.45
2023-03-01T16:23:10.009Z,10.48
2023-03-01T16:25:37.477Z,9.73
2023-03-01T16:28:09.815Z,11.52
2023-03-01T16:30:37.649Z,10.10
2023-03-01T16:33:19.184Z,9.90
2023-03-01T16:35:54.140Z,11.13
2023-03-01T16:38:21.282Z,8.27
2023-03-01T16:40:49.826Z,9.43
2023-03-01T16:43:17.434Z,8.65
2023-03-01T16:45:46.261Z,8.90
2023-03-01T16:48:13.829Z,8.93
2023-03-01T16:50:41.069Z,10.05
2023-03-01T16:53:08.195Z,10.25
2023-03-01T16:55:35.386Z,10.05
2023-03-01T16:58:02.961Z,10.75
2023-03-01T17:00:30.322Z,10.98
2023-03-01T17:02:57.517Z,8.15
2023-03-01T17:05:26.026Z,9.73
2023-03-01T17:07:55.662Z,10.00
2023-03-01T17:10:23.092Z,10.10
2023-03-01T17:12:51.123Z,9.48
2023-03-01T17:15:18.457Z,10.50
2023-03-01T17:17:45.710Z,10.00
2023-03-01T17:20:13.087Z,9.50
2023-03-01T17:22:40.200Z,12.45
2023-03-01T17:25:09.952Z,12.45
2023-03-01T17:27:39.830Z,12.00
2023-03-01T17:30:07.777Z,11.52
2023-03-01T17:32:34.949Z,11.05
2023-03-01T17:35:02.170Z,10.95
2023-03-01T17:37:29.292Z,11.93
2023-03-01T17:39:56.457Z,13.98
2023-03-01T17:42:23.617Z,11.88
2023-03-01T17:44:50.754Z,13.57
2023-03-01T17:47:17.993Z,12.18
2023-03-01T17:49:45.155Z,11.80
2023-03-01T17:52:12.294Z,12.63
2023-03-01T17:54:40.224Z,13.68
2023-03-01T17:57:07.339Z,14.73
2023-03-01T17:59:37.050Z,11.93
2023-03-01T18:02:04.376Z,13.40
2023-03-01T18:04:32.466Z,10.07
2023-03-01T18:06:59.704Z,11.10
2023-03-01T18:09:30.588Z,11.80
2023-03-01T18:11:58.668Z,13.77
2023-03-01T18:14:29.701Z,12.57
2023-03-01T18:16:56.952Z,14.50
2023-03-01T18:19:24.074Z,13.57
2023-03-01T18:21:51.143Z,11.98
2023-03-01T18:24:18.219Z,12.57
2023-03-01T18:26:45.293Z,11.65
2023-03-01T18:29:12.431Z,12.00
2023-03-01T18:31:40.510Z,11.25
2023-03-01T18:34:07.657Z,13.45
2023-03-01T18:36:35.668Z,13.48
2023-03-01T18:39:03.869Z,16.50
2023-03-01T18:41:31.467Z,18.00
2023-03-01T18:43:59.170Z,18.25
2023-03-01T18:46:26.518Z,14.48
2023-03-01T18:48:54.139Z,14.43
2023-03-01T18:51:22.837Z,14.55
2023-03-01T18:53:50.056Z,15.45
2023-03-01T18:56:17.465Z,13.15
2023-03-01T18:58:44.869Z,14.98
2023-03-01T19:01:16.118Z,15.48
2023-03-01T19:03:43.419Z,16.77
2023-03-01T19:06:10.701Z,15.45
2023-03-01T19:08:38.197Z,17.33
2023-03-01T19:11:06.175Z,13.73
2023-03-01T19:13:35.318Z,14.27
2023-03-01T19:16:04.068Z,13.88
2023-03-01T19:18:31.273Z,17.13
2023-03-01T19:21:04.083Z,15.50
2023-03-01T19:23:31.399Z,14.70
2023-03-01T19:26:02.755Z,15.95
2023-03-01T19:28:30.125Z,12.18
2023-03-01T19:31:07.829Z,13.68
2023-03-01T19:33:35.444Z,14.48
2023-03-01T19:36:02.958Z,16.40
2023-03-01T19:38:30.735Z,13.85
2023-03-01T19:40:58.106Z,17.92
2023-03-01T19:43:25.574Z,17.20
2023-03-01T19:45:53.592Z,15.57
2023-03-01T19:48:21.192Z,17.48
2023-03-01T19:50:48.468Z,14.25
2023-03-01T19:53:16.167Z,16.02
2023-03-01T19:55:43.398Z,17.50
2023-03-01T19:58:10.768Z,18.30
2023-03-01T20:00:39.034Z,13.75
2023-03-01T20:03:06.441Z,17.58
2023-03-01T20:05:34.935Z,19.00
2023-03-01T20:08:02.052Z,18.48
2023-03-01T20:10:30.263Z,18.45
2023-03-01T20:12:57.537Z,15.98
2023-03-01T20:15:24.980Z,16.15
2023-03-01T20:17:52.157Z,19.58
2023-03-01T20:20:19.349Z,16.65
2023-03-01T20:22:46.513Z,18.88
2023-03-01T20:25:13.638Z,16.45
2023-03-01T20:27:40.838Z,16.50
2023-03-01T20:30:08.273Z,17.88
2023-03-01T20:32:35.539Z,19.30
2023-03-01T20:35:03.201Z,13.77
2023-03-01T20:37:30.325Z,14.90
2023-03-01T20:42:24.109Z,15.20
2023-03-01T20:44:51.246Z,15.25
2023-03-01T20:47:21.036Z,17.88
2023-03-01T20:49:50.844Z,19.70
2023-03-01T20:52:18.161Z,17.35
2023-03-01T20:54:45.344Z,17.80
2023-03-01T20:57:12.440Z,15.38
2023-03-01T21:02:06.143Z,14.15
2023-03-01T21:06:59.843Z,14.35
2023-03-01T21:09:26.922Z,13.70
2023-03-01T21:14:21.514Z,13.85
2023-03-01T21:16:48.833Z,14.23
2023-03-01T21:19:15.939Z,16.08
2023-03-01T21:24:11.607Z,15.48
2023-03-01T21:26:39.249Z,14.00
2023-03-01T21:29:06.379Z,15.95
2023-03-01T21:31:35.274Z,17.77
2023-03-01T21:34:04.295Z,13.52
2023-03-01T21:36:32.197Z,16.30
2023-03-01T21:39:01.590Z,19.02
2023-03-01T21:41:30.332Z,18.90
2023-03-01T21:44:00.309Z,20.48
2023-03-01T21:46:28.452Z,19.85
2023-03-01T21:48:56.378Z,20.30
2023-03-01T21:51:25.216Z,19.80
2023-03-01T21:53:52.447Z,18.30
2023-03-01T21:56:21.016Z,16.38
2023-03-01T21:58:48.214Z,18.33
2023-03-01T22:01:16.776Z,16.75
2023-03-01T22:03:47.343Z,17.08
2023-03-01T22:06:19.493Z,17.40
2023-03-01T22:08:48.057Z,17.33
2023-03-01T22:11:15.561Z,19.55
2023-03-01T22:13:42.719Z,14.63
2023-03-01T22:16:09.907Z,17.50
2023-03-01T22:18:37.087Z,18.10
2023-03-01T22:21:05.387Z,17.05
2023-03-01T22:23:33.811Z,16.35
2023-03-01T22:26:01.575Z,17.45
2023-03-01T22:28:29.594Z,18.05
2023-03-01T22:30:56.882Z,22.10
2023-03-01T22:33:24.267Z,21.35
2023-03-01T22:35:51.492Z,22.25
2023-03-01T22:38:18.673Z,21.40
2023-03-01T22:40:45.786Z,22.95
2023-03-01T22:45:40.070Z,21.27
2023-03-01T22:48:07.268Z,21.23
2023-03-01T22:50:34.479Z,22.02
2023-03-01T22:53:01.660Z,26.55
2023-03-01T22:55:29.399Z,25.88
2023-03-01T22:57:56.543Z,23.33
2023-03-01T23:00:23.861Z,25.60
2023-03-01T23:02:51.151Z,28.95
2023-03-01T23:05:18.444Z,31.35
2023-03-01T23:07:46.900Z,29.88
2023-03-01T23:10:14.819Z,29.80
2023-03-01T23:12:42.207Z,31.00
2023-03-01T23:15:10.107Z,30.33
2023-03-01T23:17:37.340Z,35.05
2023-03-01T23:20:12.851Z,31.45
2023-03-01T23:22:39.980Z,33.10
2023-03-01T23:27:37.039Z,30.65
2023-03-01T23:30:05.037Z,34.45
2023-03-01T23:32:32.544Z,36.97
2023-03-01T23:34:59.801Z,31.20
2023-03-01T23:37:30.541Z,38.22
2023-03-01T23:39:57.694Z,36.67
2023-03-01T23:44:51.476Z,40.85
2023-03-01T23:49:45.668Z,35.03
2023-03-01T23:54:40.378Z,37.72
2023-03-01T23:57:07.508Z,36.45
